sensor_id;sensor_type;location;lat;lon;timestamp;P1;durP1;ratioP1;P2;durP2;ratioP2
14686;SDS011;7431;49.440;11.084;2023-10-31T00:01:07;4.90;;;4.40;;
14686;SDS011;7431;49.440;11.084;2023-10-31T00:03:33;4.83;;;4.37;;
14686;SDS011;7431;49.440;11.084;2023-10-31T00:05:59;5.43;;;4.40;;
14686;SDS011;7431;49.440;11.084;2023-10-31T00:08:25;4.57;;;4.00;;
14686;SDS011;7431;49.440;11.084;2023-10-31T00:10:51;4.67;;;4.27;;
14686;SDS011;7431;49.440;11.084;2023-10-31T00:13:17;4.10;;;3.70;;
14686;SDS011;7431;49.440;11.084;2023-10-31T00:15:43;5.43;;;4.10;;
14686;SDS011;7431;49.440;11.084;2023-10-31T00:18:09;4.20;;;3.83;;
14686;SDS011;7431;49.440;11.084;2023-10-31T00:20:35;3.70;;;3.40;;
14686;SDS011;7431;49.440;11.084;2023-10-31T00:23:01;4.23;;;3.83;;
14686;SDS011;7431;49.440;11.084;2023-10-31T00:25:27;4.47;;;3.47;;
14686;SDS011;7431;49.440;11.084;2023-10-31T00:27:53;4.23;;;3.33;;
14686;SDS011;7431;49.440;11.084;2023-10-31T00:30:19;5.90;;;3.97;;
14686;SDS011;7431;49.440;11.084;2023-10-31T00:32:46;4.30;;;3.90;;
14686;SDS011;7431;49.440;11.084;2023-10-31T00:35:12;4.13;;;3.37;;
14686;SDS011;7431;49.440;11.084;2023-10-31T00:37:38;4.70;;;3.90;;
14686;SDS011;7431;49.440;11.084;2023-10-31T00:40:07;4.63;;;3.47;;
14686;SDS011;7431;49.440;11.084;2023-10-31T00:42:36;4.60;;;3.40;;
14686;SDS011;7431;49.440;11.084;2023-10-31T00:45:02;3.63;;;2.90;;
14686;SDS011;7431;49.440;11.084;2023-10-31T00:47:28;3.30;;;3.00;;
14686;SDS011;7431;49.440;11.084;2023-10-31T00:49:54;5.30;;;3.07;;
14686;SDS011;7431;49.440;11.084;2023-10-31T00:52:20;3.37;;;2.70;;
14686;SDS011;7431;49.440;11.084;2023-10-31T00:54:46;3.33;;;2.80;;
14686;SDS011;7431;49.440;11.084;2023-10-31T00:57:12;2.70;;;2.50;;
14686;SDS011;7431;49.440;11.084;2023-10-31T00:59:38;3.17;;;2.87;;
14686;SDS011;7431;49.440;11.084;2023-10-31T01:02:04;3.87;;;2.70;;
14686;SDS011;7431;49.440;11.084;2023-10-31T01:04:30;4.03;;;2.40;;
14686;SDS011;7431;49.440;11.084;2023-10-31T01:06:56;2.73;;;2.50;;
14686;SDS011;7431;49.440;11.084;2023-10-31T01:09:22;2.40;;;2.20;;
14686;SDS011;7431;49.440;11.084;2023-10-31T01:11:48;2.30;;;2.10;;
14686;SDS011;7431;49.440;11.084;2023-10-31T01:14:14;3.13;;;2.03;;
14686;SDS011;7431;49.440;11.084;2023-10-31T01:16:40;2.20;;;2.00;;
14686;SDS011;7431;49.440;11.084;2023-10-31T01:19:06;2.23;;;1.93;;
14686;SDS011;7431;49.440;11.084;2023-10-31T01:21:33;3.70;;;2.00;;
14686;SDS011;7431;49.440;11.084;2023-10-31T01:23:59;2.20;;;2.00;;
14686;SDS011;7431;49.440;11.084;2023-10-31T01:26:25;2.13;;;1.93;;
14686;SDS011;7431;49.440;11.084;2023-10-31T01:28:51;2.17;;;1.97;;
14686;SDS011;7431;49.440;11.084;2023-10-31T01:31:17;1.73;;;1.50;;
14686;SDS011;7431;49.440;11.084;2023-10-31T01:33:43;1.40;;;1.30;;
14686;SDS011;7431;49.440;11.084;2023-10-31T01:36:10;1.80;;;1.40;;
14686;SDS011;7431;49.440;11.084;2023-10-31T01:38:37;1.20;;;1.10;;
14686;SDS011;7431;49.440;11.084;2023-10-31T01:41:03;1.30;;;1.20;;
14686;SDS011;7431;49.440;11.084;2023-10-31T01:43:30;1.30;;;1.20;;
14686;SDS011;7431;49.440;11.084;2023-10-31T01:45:56;1.93;;;1.20;;
14686;SDS011;7431;49.440;11.084;2023-10-31T01:48:22;1.93;;;1.13;;
14686;SDS011;7431;49.440;11.084;2023-10-31T01:50:48;1.37;;;1.27;;
14686;SDS011;7431;49.440;11.084;2023-10-31T01:53:14;0.80;;;0.80;;
14686;SDS011;7431;49.440;11.084;2023-10-31T01:55:40;0.80;;;0.80;;
14686;SDS011;7431;49.440;11.084;2023-10-31T01:58:07;1.20;;;1.10;;
14686;SDS011;7431;49.440;11.084;2023-10-31T02:00:34;0.73;;;0.70;;
14686;SDS011;7431;49.440;11.084;2023-10-31T02:03:00;0.73;;;0.73;;
14686;SDS011;7431;49.440;11.084;2023-10-31T02:05:26;0.70;;;0.70;;
14686;SDS011;7431;49.440;11.084;2023-10-31T02:07:53;0.87;;;0.80;;
14686;SDS011;7431;49.440;11.084;2023-10-31T02:10:19;0.77;;;0.70;;
14686;SDS011;7431;49.440;11.084;2023-10-31T02:12:45;0.73;;;0.73;;
14686;SDS011;7431;49.440;11.084;2023-10-31T02:15:11;0.40;;;0.40;;
14686;SDS011;7431;49.440;11.084;2023-10-31T02:17:37;0.40;;;0.40;;
14686;SDS011;7431;49.440;11.084;2023-10-31T02:20:03;0.30;;;0.30;;
14686;SDS011;7431;49.440;11.084;2023-10-31T02:22:29;1.10;;;0.57;;
14686;SDS011;7431;49.440;11.084;2023-10-31T02:24:55;0.60;;;0.60;;
14686;SDS011;7431;49.440;11.084;2023-10-31T02:27:21;1.03;;;0.40;;
14686;SDS011;7431;49.440;11.084;2023-10-31T02:29:47;0.57;;;0.57;;
14686;SDS011;7431;49.440;11.084;2023-10-31T02:32:13;0.40;;;0.40;;
14686;SDS011;7431;49.440;11.084;2023-10-31T02:34:39;0.50;;;0.50;;
14686;SDS011;7431;49.440;11.084;2023-10-31T02:37:05;0.57;;;0.50;;
14686;SDS011;7431;49.440;11.084;2023-10-31T02:39:31;0.70;;;0.70;;
14686;SDS011;7431;49.440;11.084;2023-10-31T02:41:57;0.70;;;0.70;;
14686;SDS011;7431;49.440;11.084;2023-10-31T02:44:23;0.60;;;0.60;;
14686;SDS011;7431;49.440;11.084;2023-10-31T02:46:49;0.77;;;0.77;;
14686;SDS011;7431;49.440;11.084;2023-10-31T02:49:15;0.70;;;0.70;;
14686;SDS011;7431;49.440;11.084;2023-10-31T02:51:41;0.90;;;0.80;;
14686;SDS011;7431;49.440;11.084;2023-10-31T02:54:07;1.00;;;0.90;;
14686;SDS011;7431;49.440;11.084;2023-10-31T02:56:33;0.90;;;0.80;;
14686;SDS011;7431;49.440;11.084;2023-10-31T02:58:59;0.63;;;0.63;;
14686;SDS011;7431;49.440;11.084;2023-10-31T03:01:27;0.90;;;0.90;;
14686;SDS011;7431;49.440;11.084;2023-10-31T03:03:53;0.63;;;0.63;;
14686;SDS011;7431;49.440;11.084;2023-10-31T03:06:20;0.70;;;0.70;;
14686;SDS011;7431;49.440;11.084;2023-10-31T03:08:46;1.07;;;0.93;;
14686;SDS011;7431;49.440;11.084;2023-10-31T03:11:20;0.83;;;0.80;;
14686;SDS011;7431;49.440;11.084;2023-10-31T03:13:46;2.50;;;0.80;;
14686;SDS011;7431;49.440;11.084;2023-10-31T03:16:12;1.13;;;1.03;;
14686;SDS011;7431;49.440;11.084;2023-10-31T03:18:39;0.93;;;0.80;;
14686;SDS011;7431;49.440;11.084;2023-10-31T03:21:05;0.80;;;0.80;;
14686;SDS011;7431;49.440;11.084;2023-10-31T03:23:31;1.37;;;0.90;;
14686;SDS011;7431;49.440;11.084;2023-10-31T03:25:57;0.60;;;0.60;;
14686;SDS011;7431;49.440;11.084;2023-10-31T03:28:23;0.77;;;0.77;;
14686;SDS011;7431;49.440;11.084;2023-10-31T03:30:49;1.03;;;0.90;;
14686;SDS011;7431;49.440;11.084;2023-10-31T03:33:16;0.60;;;0.60;;
14686;SDS011;7431;49.440;11.084;2023-10-31T03:35:42;0.50;;;0.50;;
14686;SDS011;7431;49.440;11.084;2023-10-31T03:38:08;1.37;;;0.70;;
14686;SDS011;7431;49.440;11.084;2023-10-31T03:40:34;0.67;;;0.60;;
14686;SDS011;7431;49.440;11.084;2023-10-31T03:43:00;0.63;;;0.63;;
14686;SDS011;7431;49.440;11.084;2023-10-31T03:45:26;0.80;;;0.80;;
14686;SDS011;7431;49.440;11.084;2023-10-31T03:47:52;1.33;;;0.83;;
14686;SDS011;7431;49.440;11.084;2023-10-31T03:50:18;0.70;;;0.70;;
14686;SDS011;7431;49.440;11.084;2023-10-31T03:52:44;1.63;;;0.70;;
14686;SDS011;7431;49.440;11.084;2023-10-31T03:55:10;0.70;;;0.70;;
14686;SDS011;7431;49.440;11.084;2023-10-31T03:57:35;0.43;;;0.43;;
14686;SDS011;7431;49.440;11.084;2023-10-31T04:00:02;1.90;;;0.73;;
14686;SDS011;7431;49.440;11.084;2023-10-31T04:02:29;1.57;;;1.00;;
14686;SDS011;7431;49.440;11.084;2023-10-31T04:04:55;0.60;;;0.60;;
14686;SDS011;7431;49.440;11.084;2023-10-31T04:07:21;1.70;;;0.73;;
14686;SDS011;7431;49.440;11.084;2023-10-31T04:09:47;0.77;;;0.77;;
14686;SDS011;7431;49.440;11.084;2023-10-31T04:12:13;0.93;;;0.80;;
14686;SDS011;7431;49.440;11.084;2023-10-31T04:14:39;0.87;;;0.80;;
14686;SDS011;7431;49.440;11.084;2023-10-31T04:17:05;1.07;;;0.90;;
14686;SDS011;7431;49.440;11.084;2023-10-31T04:19:31;0.83;;;0.80;;
14686;SDS011;7431;49.440;11.084;2023-10-31T04:21:57;0.77;;;0.77;;
14686;SDS011;7431;49.440;11.084;2023-10-31T04:24:23;1.93;;;1.13;;
14686;SDS011;7431;49.440;11.084;2023-10-31T04:26:49;0.77;;;0.77;;
14686;SDS011;7431;49.440;11.084;2023-10-31T04:29:15;2.83;;;1.00;;
14686;SDS011;7431;49.440;11.084;2023-10-31T04:31:40;0.93;;;0.80;;
14686;SDS011;7431;49.440;11.084;2023-10-31T04:34:07;0.90;;;0.90;;
14686;SDS011;7431;49.440;11.084;2023-10-31T04:36:33;0.77;;;0.77;;
14686;SDS011;7431;49.440;11.084;2023-10-31T04:38:59;0.83;;;0.83;;
14686;SDS011;7431;49.440;11.084;2023-10-31T04:41:25;1.83;;;0.90;;
14686;SDS011;7431;49.440;11.084;2023-10-31T04:43:51;0.80;;;0.80;;
14686;SDS011;7431;49.440;11.084;2023-10-31T04:46:17;1.13;;;0.90;;
14686;SDS011;7431;49.440;11.084;2023-10-31T04:48:43;1.07;;;0.97;;
14686;SDS011;7431;49.440;11.084;2023-10-31T04:51:09;0.80;;;0.80;;
14686;SDS011;7431;49.440;11.084;2023-10-31T04:53:35;0.80;;;0.80;;
14686;SDS011;7431;49.440;11.084;2023-10-31T04:56:01;0.90;;;0.90;;
14686;SDS011;7431;49.440;11.084;2023-10-31T04:58:27;0.93;;;0.90;;
14686;SDS011;7431;49.440;11.084;2023-10-31T05:00:53;0.87;;;0.83;;
14686;SDS011;7431;49.440;11.084;2023-10-31T05:03:19;1.10;;;1.00;;
14686;SDS011;7431;49.440;11.084;2023-10-31T05:05:45;2.87;;;0.90;;
14686;SDS011;7431;49.440;11.084;2023-10-31T05:08:11;0.87;;;0.87;;
14686;SDS011;7431;49.440;11.084;2023-10-31T05:10:37;1.17;;;1.07;;
14686;SDS011;7431;49.440;11.084;2023-10-31T05:13:03;1.70;;;0.97;;
14686;SDS011;7431;49.440;11.084;2023-10-31T05:15:29;1.00;;;0.90;;
14686;SDS011;7431;49.440;11.084;2023-10-31T05:17:55;2.43;;;1.10;;
14686;SDS011;7431;49.440;11.084;2023-10-31T05:20:21;1.03;;;1.00;;
14686;SDS011;7431;49.440;11.084;2023-10-31T05:22:47;1.63;;;1.40;;
14686;SDS011;7431;49.440;11.084;2023-10-31T05:25:13;1.73;;;1.03;;
14686;SDS011;7431;49.440;11.084;2023-10-31T05:27:39;0.87;;;0.87;;
14686;SDS011;7431;49.440;11.084;2023-10-31T05:30:05;1.40;;;1.30;;
14686;SDS011;7431;49.440;11.084;2023-10-31T05:32:31;1.40;;;1.30;;
14686;SDS011;7431;49.440;11.084;2023-10-31T05:34:57;2.57;;;1.10;;
14686;SDS011;7431;49.440;11.084;2023-10-31T05:37:24;2.47;;;1.30;;
14686;SDS011;7431;49.440;11.084;2023-10-31T05:39:50;1.60;;;1.00;;
14686;SDS011;7431;49.440;11.084;2023-10-31T05:42:16;0.97;;;0.97;;
14686;SDS011;7431;49.440;11.084;2023-10-31T05:44:45;0.80;;;0.80;;
14686;SDS011;7431;49.440;11.084;2023-10-31T05:47:11;0.80;;;0.80;;
14686;SDS011;7431;49.440;11.084;2023-10-31T05:49:37;1.23;;;0.80;;
14686;SDS011;7431;49.440;11.084;2023-10-31T05:52:03;0.50;;;0.50;;
14686;SDS011;7431;49.440;11.084;2023-10-31T05:54:29;0.70;;;0.70;;
14686;SDS011;7431;49.440;11.084;2023-10-31T05:56:55;0.70;;;0.70;;
14686;SDS011;7431;49.440;11.084;2023-10-31T05:59:21;2.43;;;1.00;;
14686;SDS011;7431;49.440;11.084;2023-10-31T06:01:47;0.50;;;0.50;;
14686;SDS011;7431;49.440;11.084;2023-10-31T06:04:15;1.23;;;0.90;;
14686;SDS011;7431;49.440;11.084;2023-10-31T06:06:41;2.03;;;1.20;;
14686;SDS011;7431;49.440;11.084;2023-10-31T06:09:07;1.27;;;0.80;;
14686;SDS011;7431;49.440;11.084;2023-10-31T06:11:35;0.87;;;0.60;;
14686;SDS011;7431;49.440;11.084;2023-10-31T06:14:00;1.33;;;1.03;;
14686;SDS011;7431;49.440;11.084;2023-10-31T06:16:26;0.70;;;0.70;;
14686;SDS011;7431;49.440;11.084;2023-10-31T06:18:52;1.90;;;0.80;;
14686;SDS011;7431;49.440;11.084;2023-10-31T06:21:18;0.93;;;0.87;;
14686;SDS011;7431;49.440;11.084;2023-10-31T06:23:44;1.60;;;1.50;;
14686;SDS011;7431;49.440;11.084;2023-10-31T06:26:11;0.80;;;0.80;;
14686;SDS011;7431;49.440;11.084;2023-10-31T06:28:37;0.50;;;0.50;;
14686;SDS011;7431;49.440;11.084;2023-10-31T06:31:05;0.70;;;0.70;;
14686;SDS011;7431;49.440;11.084;2023-10-31T06:33:31;0.93;;;0.83;;
14686;SDS011;7431;49.440;11.084;2023-10-31T06:35:57;1.77;;;0.77;;
14686;SDS011;7431;49.440;11.084;2023-10-31T06:38:23;0.73;;;0.57;;
14686;SDS011;7431;49.440;11.084;2023-10-31T06:40:49;0.80;;;0.80;;
14686;SDS011;7431;49.440;11.084;2023-10-31T06:43:15;0.90;;;0.90;;
14686;SDS011;7431;49.440;11.084;2023-10-31T06:45:41;0.63;;;0.63;;
14686;SDS011;7431;49.440;11.084;2023-10-31T06:48:07;0.97;;;0.67;;
14686;SDS011;7431;49.440;11.084;2023-10-31T06:50:34;0.67;;;0.67;;
14686;SDS011;7431;49.440;11.084;2023-10-31T06:53:00;1.43;;;0.80;;
14686;SDS011;7431;49.440;11.084;2023-10-31T06:55:26;0.60;;;0.60;;
14686;SDS011;7431;49.440;11.084;2023-10-31T06:57:52;0.70;;;0.70;;
14686;SDS011;7431;49.440;11.084;2023-10-31T07:00:18;1.20;;;0.70;;
14686;SDS011;7431;49.440;11.084;2023-10-31T07:02:44;1.23;;;0.90;;
14686;SDS011;7431;49.440;11.084;2023-10-31T07:05:20;1.33;;;0.70;;
14686;SDS011;7431;49.440;11.084;2023-10-31T07:08:05;0.70;;;0.70;;
14686;SDS011;7431;49.440;11.084;2023-10-31T07:10:31;0.90;;;0.80;;
14686;SDS011;7431;49.440;11.084;2023-10-31T07:12:58;1.20;;;1.00;;
14686;SDS011;7431;49.440;11.084;2023-10-31T07:15:24;2.10;;;1.80;;
14686;SDS011;7431;49.440;11.084;2023-10-31T07:17:50;1.13;;;1.07;;
14686;SDS011;7431;49.440;11.084;2023-10-31T07:20:16;2.00;;;0.90;;
14686;SDS011;7431;49.440;11.084;2023-10-31T07:22:42;1.00;;;0.80;;
14686;SDS011;7431;49.440;11.084;2023-10-31T07:25:08;1.67;;;0.93;;
14686;SDS011;7431;49.440;11.084;2023-10-31T07:27:35;2.00;;;1.00;;
14686;SDS011;7431;49.440;11.084;2023-10-31T07:30:02;0.83;;;0.60;;
14686;SDS011;7431;49.440;11.084;2023-10-31T07:32:29;0.70;;;0.70;;
14686;SDS011;7431;49.440;11.084;2023-10-31T07:34:54;1.10;;;0.67;;
14686;SDS011;7431;49.440;11.084;2023-10-31T07:37:21;0.77;;;0.77;;
14686;SDS011;7431;49.440;11.084;2023-10-31T07:39:47;0.63;;;0.63;;
14686;SDS011;7431;49.440;11.084;2023-10-31T07:42:13;0.60;;;0.50;;
14686;SDS011;7431;49.440;11.084;2023-10-31T07:44:39;1.80;;;0.70;;
14686;SDS011;7431;49.440;11.084;2023-10-31T07:47:05;0.70;;;0.70;;
14686;SDS011;7431;49.440;11.084;2023-10-31T07:49:31;1.17;;;0.97;;
14686;SDS011;7431;49.440;11.084;2023-10-31T07:51:58;0.97;;;0.80;;
14686;SDS011;7431;49.440;11.084;2023-10-31T07:54:23;0.80;;;0.80;;
14686;SDS011;7431;49.440;11.084;2023-10-31T07:56:49;1.70;;;1.20;;
14686;SDS011;7431;49.440;11.084;2023-10-31T07:59:15;2.07;;;0.70;;
14686;SDS011;7431;49.440;11.084;2023-10-31T08:01:41;1.20;;;0.90;;
14686;SDS011;7431;49.440;11.084;2023-10-31T08:04:07;0.50;;;0.50;;
14686;SDS011;7431;49.440;11.084;2023-10-31T08:06:33;0.97;;;0.80;;
14686;SDS011;7431;49.440;11.084;2023-10-31T08:08:59;0.60;;;0.60;;
14686;SDS011;7431;49.440;11.084;2023-10-31T08:11:25;1.80;;;0.80;;
14686;SDS011;7431;49.440;11.084;2023-10-31T08:13:52;2.37;;;0.70;;
14686;SDS011;7431;49.440;11.084;2023-10-31T08:16:18;2.10;;;0.90;;
14686;SDS011;7431;49.440;11.084;2023-10-31T08:18:45;0.43;;;0.43;;
14686;SDS011;7431;49.440;11.084;2023-10-31T08:21:11;2.67;;;0.90;;
14686;SDS011;7431;49.440;11.084;2023-10-31T08:23:37;1.40;;;0.80;;
14686;SDS011;7431;49.440;11.084;2023-10-31T08:26:03;1.40;;;1.10;;
14686;SDS011;7431;49.440;11.084;2023-10-31T08:28:29;1.90;;;1.00;;
14686;SDS011;7431;49.440;11.084;2023-10-31T08:30:55;0.90;;;0.60;;
14686;SDS011;7431;49.440;11.084;2023-10-31T08:33:21;1.93;;;1.10;;
14686;SDS011;7431;49.440;11.084;2023-10-31T08:35:47;1.90;;;0.60;;
14686;SDS011;7431;49.440;11.084;2023-10-31T08:38:14;0.80;;;0.60;;
14686;SDS011;7431;49.440;11.084;2023-10-31T08:40:40;0.70;;;0.60;;
14686;SDS011;7431;49.440;11.084;2023-10-31T08:43:06;0.70;;;0.70;;
14686;SDS011;7431;49.440;11.084;2023-10-31T08:45:32;1.67;;;0.70;;
14686;SDS011;7431;49.440;11.084;2023-10-31T08:47:59;1.23;;;1.13;;
14686;SDS011;7431;49.440;11.084;2023-10-31T08:50:25;0.77;;;0.77;;
14686;SDS011;7431;49.440;11.084;2023-10-31T08:52:51;1.47;;;0.83;;
14686;SDS011;7431;49.440;11.084;2023-10-31T08:55:17;0.80;;;0.80;;
14686;SDS011;7431;49.440;11.084;2023-10-31T08:57:43;1.07;;;0.80;;
14686;SDS011;7431;49.440;11.084;2023-10-31T09:00:09;1.33;;;0.73;;
14686;SDS011;7431;49.440;11.084;2023-10-31T09:02:35;0.70;;;0.70;;
14686;SDS011;7431;49.440;11.084;2023-10-31T09:05:04;0.90;;;0.70;;
14686;SDS011;7431;49.440;11.084;2023-10-31T09:07:30;0.90;;;0.90;;
14686;SDS011;7431;49.440;11.084;2023-10-31T09:09:57;1.40;;;0.80;;
14686;SDS011;7431;49.440;11.084;2023-10-31T09:12:23;0.57;;;0.57;;
14686;SDS011;7431;49.440;11.084;2023-10-31T09:14:49;1.03;;;0.83;;
14686;SDS011;7431;49.440;11.084;2023-10-31T09:17:15;0.80;;;0.50;;
14686;SDS011;7431;49.440;11.084;2023-10-31T09:19:41;0.90;;;0.80;;
14686;SDS011;7431;49.440;11.084;2023-10-31T09:22:07;0.43;;;0.43;;
14686;SDS011;7431;49.440;11.084;2023-10-31T09:24:33;0.70;;;0.70;;
14686;SDS011;7431;49.440;11.084;2023-10-31T09:26:59;1.03;;;0.77;;
14686;SDS011;7431;49.440;11.084;2023-10-31T09:29:25;0.60;;;0.60;;
14686;SDS011;7431;49.440;11.084;2023-10-31T09:31:51;1.53;;;0.77;;
14686;SDS011;7431;49.440;11.084;2023-10-31T09:34:17;1.17;;;0.80;;
14686;SDS011;7431;49.440;11.084;2023-10-31T09:36:43;0.73;;;0.70;;
14686;SDS011;7431;49.440;11.084;2023-10-31T09:39:09;2.13;;;0.53;;
14686;SDS011;7431;49.440;11.084;2023-10-31T09:41:35;0.50;;;0.50;;
14686;SDS011;7431;49.440;11.084;2023-10-31T09:44:01;1.57;;;1.33;;
14686;SDS011;7431;49.440;11.084;2023-10-31T09:46:28;0.83;;;0.50;;
14686;SDS011;7431;49.440;11.084;2023-10-31T09:48:54;1.23;;;0.70;;
14686;SDS011;7431;49.440;11.084;2023-10-31T09:51:20;2.80;;;1.40;;
14686;SDS011;7431;49.440;11.084;2023-10-31T09:53:47;2.17;;;0.77;;
14686;SDS011;7431;49.440;11.084;2023-10-31T09:56:13;1.10;;;0.90;;
14686;SDS011;7431;49.440;11.084;2023-10-31T09:58:39;0.80;;;0.80;;
14686;SDS011;7431;49.440;11.084;2023-10-31T10:01:06;1.03;;;0.70;;
14686;SDS011;7431;49.440;11.084;2023-10-31T10:03:33;0.50;;;0.50;;
14686;SDS011;7431;49.440;11.084;2023-10-31T10:05:59;2.30;;;0.90;;
14686;SDS011;7431;49.440;11.084;2023-10-31T10:08:25;1.40;;;1.20;;
14686;SDS011;7431;49.440;11.084;2023-10-31T10:10:51;0.80;;;0.73;;
14686;SDS011;7431;49.440;11.084;2023-10-31T10:13:18;2.47;;;1.70;;
14686;SDS011;7431;49.440;11.084;2023-10-31T10:15:47;2.03;;;1.30;;
14686;SDS011;7431;49.440;11.084;2023-10-31T10:20:56;1.37;;;1.23;;
14686;SDS011;7431;49.440;11.084;2023-10-31T10:23:22;1.83;;;1.53;;
14686;SDS011;7431;49.440;11.084;2023-10-31T10:25:49;3.37;;;2.10;;
14686;SDS011;7431;49.440;11.084;2023-10-31T10:28:15;1.83;;;1.53;;
14686;SDS011;7431;49.440;11.084;2023-10-31T10:30:41;3.87;;;2.20;;
14686;SDS011;7431;49.440;11.084;2023-10-31T10:33:07;3.33;;;2.33;;
14686;SDS011;7431;49.440;11.084;2023-10-31T10:35:33;2.07;;;0.90;;
14686;SDS011;7431;49.440;11.084;2023-10-31T10:37:59;1.33;;;1.10;;
14686;SDS011;7431;49.440;11.084;2023-10-31T10:40:26;1.67;;;1.53;;
14686;SDS011;7431;49.440;11.084;2023-10-31T10:42:52;3.00;;;1.40;;
14686;SDS011;7431;49.440;11.084;2023-10-31T10:45:23;3.10;;;1.80;;
14686;SDS011;7431;49.440;11.084;2023-10-31T10:47:49;1.47;;;1.00;;
14686;SDS011;7431;49.440;11.084;2023-10-31T10:50:18;2.60;;;1.67;;
14686;SDS011;7431;49.440;11.084;2023-10-31T10:52:49;0.93;;;0.93;;
14686;SDS011;7431;49.440;11.084;2023-10-31T10:55:19;1.77;;;1.37;;
14686;SDS011;7431;49.440;11.084;2023-10-31T11:00:16;2.67;;;1.10;;
14686;SDS011;7431;49.440;11.084;2023-10-31T11:02:44;1.87;;;1.20;;
14686;SDS011;7431;49.440;11.084;2023-10-31T11:05:10;2.27;;;1.30;;
14686;SDS011;7431;49.440;11.084;2023-10-31T11:07:37;5.40;;;3.33;;
14686;SDS011;7431;49.440;11.084;2023-10-31T11:10:04;2.87;;;1.67;;
14686;SDS011;7431;49.440;11.084;2023-10-31T11:12:31;1.83;;;1.33;;
14686;SDS011;7431;49.440;11.084;2023-10-31T11:14:58;5.67;;;2.17;;
14686;SDS011;7431;49.440;11.084;2023-10-31T11:17:28;2.83;;;2.13;;
14686;SDS011;7431;49.440;11.084;2023-10-31T11:19:54;3.10;;;1.77;;
14686;SDS011;7431;49.440;11.084;2023-10-31T11:22:21;2.20;;;2.00;;
14686;SDS011;7431;49.440;11.084;2023-10-31T11:24:48;2.30;;;1.90;;
14686;SDS011;7431;49.440;11.084;2023-10-31T11:27:14;1.13;;;1.10;;
14686;SDS011;7431;49.440;11.084;2023-10-31T11:29:42;2.30;;;1.40;;
14686;SDS011;7431;49.440;11.084;2023-10-31T11:32:11;1.77;;;1.30;;
14686;SDS011;7431;49.440;11.084;2023-10-31T11:34:37;3.10;;;1.80;;
14686;SDS011;7431;49.440;11.084;2023-10-31T11:37:23;2.87;;;2.00;;
14686;SDS011;7431;49.440;11.084;2023-10-31T11:42:34;2.17;;;1.20;;
14686;SDS011;7431;49.440;11.084;2023-10-31T11:45:02;3.17;;;1.60;;
14686;SDS011;7431;49.440;11.084;2023-10-31T11:47:44;1.33;;;1.23;;
14686;SDS011;7431;49.440;11.084;2023-10-31T11:50:10;1.87;;;1.50;;
14686;SDS011;7431;49.440;11.084;2023-10-31T11:52:36;1.50;;;1.20;;
14686;SDS011;7431;49.440;11.084;2023-10-31T11:55:03;2.00;;;1.17;;
14686;SDS011;7431;49.440;11.084;2023-10-31T11:57:29;1.20;;;0.90;;
14686;SDS011;7431;49.440;11.084;2023-10-31T11:59:55;3.07;;;1.50;;
14686;SDS011;7431;49.440;11.084;2023-10-31T12:02:21;2.77;;;1.27;;
14686;SDS011;7431;49.440;11.084;2023-10-31T12:04:47;1.57;;;1.17;;
14686;SDS011;7431;49.440;11.084;2023-10-31T12:07:13;2.33;;;1.20;;
14686;SDS011;7431;49.440;11.084;2023-10-31T12:09:46;1.20;;;1.10;;
14686;SDS011;7431;49.440;11.084;2023-10-31T12:12:12;3.13;;;1.90;;
14686;SDS011;7431;49.440;11.084;2023-10-31T12:14:38;3.57;;;2.20;;
14686;SDS011;7431;49.440;11.084;2023-10-31T12:17:04;3.43;;;2.60;;
14686;SDS011;7431;49.440;11.084;2023-10-31T12:19:31;3.80;;;1.63;;
14686;SDS011;7431;49.440;11.084;2023-10-31T12:21:57;3.00;;;2.10;;
14686;SDS011;7431;49.440;11.084;2023-10-31T12:24:23;1.13;;;1.00;;
14686;SDS011;7431;49.440;11.084;2023-10-31T12:26:49;2.70;;;1.40;;
14686;SDS011;7431;49.440;11.084;2023-10-31T12:29:20;4.33;;;1.60;;
14686;SDS011;7431;49.440;11.084;2023-10-31T12:31:47;2.87;;;1.50;;
14686;SDS011;7431;49.440;11.084;2023-10-31T12:34:17;1.33;;;1.23;;
14686;SDS011;7431;49.440;11.084;2023-10-31T12:36:43;3.03;;;1.57;;
14686;SDS011;7431;49.440;11.084;2023-10-31T12:39:10;1.60;;;1.50;;
14686;SDS011;7431;49.440;11.084;2023-10-31T12:41:37;6.30;;;1.50;;
14686;SDS011;7431;49.440;11.084;2023-10-31T12:44:03;2.90;;;1.90;;
14686;SDS011;7431;49.440;11.084;2023-10-31T12:46:38;3.00;;;1.27;;
14686;SDS011;7431;49.440;11.084;2023-10-31T12:49:10;1.70;;;1.40;;
14686;SDS011;7431;49.440;11.084;2023-10-31T12:51:37;1.87;;;1.53;;
14686;SDS011;7431;49.440;11.084;2023-10-31T12:54:03;1.30;;;1.10;;
14686;SDS011;7431;49.440;11.084;2023-10-31T12:59:04;1.63;;;0.97;;
14686;SDS011;7431;49.440;11.084;2023-10-31T13:01:32;1.73;;;1.20;;
14686;SDS011;7431;49.440;11.084;2023-10-31T13:03:58;1.67;;;1.20;;
14686;SDS011;7431;49.440;11.084;2023-10-31T13:06:24;2.13;;;1.10;;
14686;SDS011;7431;49.440;11.084;2023-10-31T13:08:50;4.93;;;1.50;;
14686;SDS011;7431;49.440;11.084;2023-10-31T13:11:16;1.47;;;1.37;;
14686;SDS011;7431;49.440;11.084;2023-10-31T13:13:42;1.13;;;1.03;;
14686;SDS011;7431;49.440;11.084;2023-10-31T13:16:08;2.93;;;1.20;;
14686;SDS011;7431;49.440;11.084;2023-10-31T13:18:35;1.20;;;1.10;;
14686;SDS011;7431;49.440;11.084;2023-10-31T13:21:01;2.30;;;1.20;;
14686;SDS011;7431;49.440;11.084;2023-10-31T13:23:26;1.83;;;0.90;;
14686;SDS011;7431;49.440;11.084;2023-10-31T13:25:52;1.10;;;1.00;;
14686;SDS011;7431;49.440;11.084;2023-10-31T13:28:18;2.03;;;1.07;;
14686;SDS011;7431;49.440;11.084;2023-10-31T13:30:44;1.13;;;0.90;;
14686;SDS011;7431;49.440;11.084;2023-10-31T13:33:13;1.67;;;1.13;;
14686;SDS011;7431;49.440;11.084;2023-10-31T13:35:39;3.23;;;1.30;;
14686;SDS011;7431;49.440;11.084;2023-10-31T13:38:05;1.53;;;1.23;;
14686;SDS011;7431;49.440;11.084;2023-10-31T13:40:31;2.20;;;1.53;;
14686;SDS011;7431;49.440;11.084;2023-10-31T13:42:57;1.53;;;1.33;;
14686;SDS011;7431;49.440;11.084;2023-10-31T13:45:23;1.10;;;1.00;;
14686;SDS011;7431;49.440;11.084;2023-10-31T13:47:49;1.23;;;0.90;;
14686;SDS011;7431;49.440;11.084;2023-10-31T13:50:15;0.63;;;0.63;;
14686;SDS011;7431;49.440;11.084;2023-10-31T13:52:40;2.27;;;0.97;;
14686;SDS011;7431;49.440;11.084;2023-10-31T13:55:07;1.37;;;0.80;;
14686;SDS011;7431;49.440;11.084;2023-10-31T13:57:33;2.80;;;1.60;;
14686;SDS011;7431;49.440;11.084;2023-10-31T13:59:59;1.97;;;1.47;;
14686;SDS011;7431;49.440;11.084;2023-10-31T14:02:25;1.63;;;1.43;;
14686;SDS011;7431;49.440;11.084;2023-10-31T14:04:53;4.07;;;1.70;;
14686;SDS011;7431;49.440;11.084;2023-10-31T14:07:22;2.23;;;1.40;;
14686;SDS011;7431;49.440;11.084;2023-10-31T14:09:49;2.63;;;1.00;;
14686;SDS011;7431;49.440;11.084;2023-10-31T14:12:15;2.87;;;1.40;;
14686;SDS011;7431;49.440;11.084;2023-10-31T14:14:41;1.43;;;1.03;;
14686;SDS011;7431;49.440;11.084;2023-10-31T14:17:07;2.17;;;1.10;;
14686;SDS011;7431;49.440;11.084;2023-10-31T14:19:33;1.83;;;1.00;;
14686;SDS011;7431;49.440;11.084;2023-10-31T14:21:58;2.47;;;1.20;;
14686;SDS011;7431;49.440;11.084;2023-10-31T14:24:26;2.07;;;1.40;;
14686;SDS011;7431;49.440;11.084;2023-10-31T14:26:52;1.53;;;1.13;;
14686;SDS011;7431;49.440;11.084;2023-10-31T14:29:17;2.70;;;1.60;;
14686;SDS011;7431;49.440;11.084;2023-10-31T14:31:43;2.80;;;1.57;;
14686;SDS011;7431;49.440;11.084;2023-10-31T14:34:09;2.30;;;1.30;;
14686;SDS011;7431;49.440;11.084;2023-10-31T14:36:35;2.70;;;1.40;;
14686;SDS011;7431;49.440;11.084;2023-10-31T14:39:01;3.73;;;1.43;;
14686;SDS011;7431;49.440;11.084;2023-10-31T14:41:27;2.13;;;1.50;;
14686;SDS011;7431;49.440;11.084;2023-10-31T14:43:58;4.57;;;1.50;;
14686;SDS011;7431;49.440;11.084;2023-10-31T14:46:24;2.50;;;1.37;;
14686;SDS011;7431;49.440;11.084;2023-10-31T14:48:50;2.20;;;1.53;;
14686;SDS011;7431;49.440;11.084;2023-10-31T14:51:16;4.77;;;1.47;;
14686;SDS011;7431;49.440;11.084;2023-10-31T14:53:42;2.70;;;1.83;;